Wake Island, Hawaii
Current Conditions -  °F | °C
As of 7:29 AM on Saturday 20 Dec 2014 (Local Time) from PWAK Reporting Station
Overcast Overcast  
Wind Chill: 75°   Ceiling: 2700
Heat Index: 75°   Visibility: 6mi
Dew Point: 73°   Wind: 28mph
Humidity: 94%   Direction: 60°ENE
Pressure: 30.01"   Gusts: 38mph
Location:  19.2833°N, 166.6°E
Report Text: PWAK 201929Z AUTO 06024G33KT 9999 SCT020 BKN027 OVC036 24/23 A3001 RMK AO2 CIG 027V040 BKN V SCT
Loading
Personal Weather Stations






























Interactive Weather Map New forecast layout! Learn more

10-Day Weather Forecast

Advertisements
Track Severe Weather on mobile